Friday, January 18, 2019, 2:55 AM EST
Back to Local

KPOU, Poughkeepsie Dutchess Cty

Location: Wappingers Falls, NY, United States Lat: 41.633
Local Time: 2:55 AM EST ( 7:55 GMT) Lon: -73.883
Time Zone: US/Eastern Elev: 167 ft

Show me the last for .
Show Decoded

2019-01-18 02:42 METAR KPOU 180742Z 00000KT 2SM -SN OVC030 M03/M07 A3019 RMK AO2 P0000 T10331067
                 =
2019-01-18 02:29 METAR KPOU 180729Z 00000KT 2SM -SN OVC029 M03/M07 A3019 RMK AO2 P0000 T10331067
                 =
2019-01-18 02:21 METAR KPOU 180721Z 00000KT 1 3/4SM -SN OVC027 M03/M07 A3020 RMK AO2 P0000
                 T10331067 =
2019-01-18 02:09 METAR KPOU 180709Z 00000KT 2SM -SN OVC025 M03/M07 A3020 RMK AO2 P0000 T10331067
                 =
2019-01-18 01:53 METAR KPOU 180653Z 00000KT 1 1/4SM -SN OVC021 M03/M07 A3021 RMK AO2 SLP228 P0001
                 T10331067 =
2019-01-18 01:26 METAR KPOU 180626Z 00000KT 1 1/2SM -SN OVC025 M03/M07 A3021 RMK AO2 P0000
                 T10331072 =
2019-01-18 00:53 METAR KPOU 180553Z 17003KT 2 1/2SM -SN OVC022 M03/M09 A3022 RMK AO2 SNB23 SLP231
                 P0000 60000 T10281089 11017 21039 58013 =
2019-01-18 00:32 METAR KPOU 180532Z 00000KT 4SM -SN OVC026 M02/M11 A3022 RMK AO2 SNB23 P0000
                 T10221106 =
2019-01-17 23:53 METAR KPOU 180453Z 00000KT 10SM OVC044 M02/M11 A3024 RMK AO2 SLP238 T10221106
                 410061078 =
2019-01-17 22:53 METAR KPOU 180353Z 00000KT 10SM OVC075 M02/M12 A3025 RMK AO2 SLP242 T10221122 =
2019-01-17 21:53 METAR KPOU 180253Z 00000KT 10SM BKN065 OVC090 M02/M14 A3025 RMK AO2 SLP243
                 T10171144 57018 =
2019-01-17 20:53 METAR KPOU 180153Z 00000KT 10SM FEW095 SCT120 M04/M13 A3027 RMK AO2 SLP248
                 T10391128 =
2019-01-17 19:53 METAR KPOU 180053Z 00000KT 10SM BKN110 M04/M13 A3029 RMK AO2 SLP257 T10391128 =
2019-01-17 18:53 METAR KPOU 172353Z 00000KT 10SM SCT110 M04/M14 A3031 RMK AO2 SLP261 T10391139
                 11006 21039 53003 =
2019-01-17 17:53 METAR KPOU 172253Z 00000KT 10SM SCT120 M03/M15 A3030 RMK AO2 SLP258 T10281150 =
2019-01-17 16:53 METAR KPOU 172153Z 33003KT 10SM CLR M02/M18 A3029 RMK AO2 SLP256 T10171178 =
2019-01-17 15:53 METAR KPOU 172053Z 00000KT 10SM CLR M01/M18 A3030 RMK AO2 SLP259 T10111183 57022
                 =
2019-01-17 14:53 METAR KPOU 171953Z 00000KT 10SM CLR M01/M18 A3033 RMK AO2 SLP269 T10111178 =
2019-01-17 13:53 METAR KPOU 171853Z 02003KT 10SM CLR M01/M18 A3034 RMK AO2 SLP271 T10111178 =
2019-01-17 12:53 METAR KPOU 171753Z VRB03KT 10SM CLR M02/M17 A3036 RMK AO2 SLP281 T10221167 11022
                 21078 58025 =
2019-01-17 11:53 METAR KPOU 171653Z 00000KT 10SM CLR M04/M17 A3040 RMK AO2 SLP294 T10441167 =
2019-01-17 10:53 METAR KPOU 171553Z 03005KT 10SM CLR M04/M17 A3043 RMK AO2 SLP303 T10441167 =
2019-01-17 09:53 METAR KPOU 171453Z 01006KT 10SM CLR M05/M17 A3044 RMK AO2 SLP306 T10501167 51018
                 =
2019-01-17 08:53 METAR KPOU 171353Z 02006KT 10SM CLR M07/M17 A3043 RMK AO2 SLP302 T10671167 =
2019-01-17 07:53 METAR KPOU 171253Z AUTO 00000KT 10SM CLR M07/M16 A3041 RMK AO2 SLP296 T10721161
                 =
2019-01-17 06:53 METAR KPOU 171153Z AUTO 01004KT 10SM CLR M07/M17 A3038 RMK AO2 SLP288 T10721167
                 11028 21072 53022 =
2019-01-17 05:53 METAR KPOU 171053Z AUTO 03003KT 10SM CLR M07/M16 A3035 RMK AO2 SLP277 T10721156
                 =
2019-01-17 04:53 METAR KPOU 170953Z AUTO 02007KT 10SM CLR M07/M14 A3033 RMK AO2 SLP270 T10671139
                 =
2019-01-17 03:53 METAR KPOU 170853Z AUTO 33003KT 10SM CLR M05/M13 A3032 RMK AO2 SLP266 T10501133
                 51019 =

Support USWX by starting your Amazon purchase here.